sensor_id;sensor_type;location;lat;lon;timestamp;temperature;humidity
20526;DHT22;10421;49.142;9.232;2024-02-23T00:02:13;9.60;99.90
20526;DHT22;10421;49.142;9.232;2024-02-23T00:04:39;9.50;99.90
20526;DHT22;10421;49.142;9.232;2024-02-23T00:07:07;9.50;99.90
20526;DHT22;10421;49.142;9.232;2024-02-23T00:09:35;9.40;99.90
20526;DHT22;10421;49.142;9.232;2024-02-23T00:12:03;9.40;99.90
20526;DHT22;10421;49.142;9.232;2024-02-23T00:14:30;9.40;99.90
20526;DHT22;10421;49.142;9.232;2024-02-23T00:16:58;9.40;99.90
20526;DHT22;10421;49.142;9.232;2024-02-23T00:19:27;9.30;99.90
20526;DHT22;10421;49.142;9.232;2024-02-23T00:21:53;9.20;99.90
20526;DHT22;10421;49.142;9.232;2024-02-23T00:24:20;9.30;99.90
20526;DHT22;10421;49.142;9.232;2024-02-23T00:26:49;9.10;99.90
20526;DHT22;10421;49.142;9.232;2024-02-23T00:29:17;9.10;99.90
20526;DHT22;10421;49.142;9.232;2024-02-23T00:31:44;9.00;99.90
20526;DHT22;10421;49.142;9.232;2024-02-23T00:34:11;9.00;99.90
20526;DHT22;10421;49.142;9.232;2024-02-23T00:36:39;9.10;99.90
20526;DHT22;10421;49.142;9.232;2024-02-23T00:39:06;9.10;99.90
20526;DHT22;10421;49.142;9.232;2024-02-23T00:41:34;9.20;99.90
20526;DHT22;10421;49.142;9.232;2024-02-23T00:44:03;9.10;99.90
20526;DHT22;10421;49.142;9.232;2024-02-23T00:46:30;9.10;99.90
20526;DHT22;10421;49.142;9.232;2024-02-23T00:48:57;9.00;99.90
20526;DHT22;10421;49.142;9.232;2024-02-23T00:51:24;9.20;99.90
20526;DHT22;10421;49.142;9.232;2024-02-23T00:53:51;9.20;99.90
20526;DHT22;10421;49.142;9.232;2024-02-23T00:56:18;9.20;99.90
20526;DHT22;10421;49.142;9.232;2024-02-23T00:58:45;9.20;99.90
20526;DHT22;10421;49.142;9.232;2024-02-23T01:01:13;9.20;99.90
20526;DHT22;10421;49.142;9.232;2024-02-23T01:03:40;9.10;99.90
20526;DHT22;10421;49.142;9.232;2024-02-23T01:06:07;9.20;99.90
20526;DHT22;10421;49.142;9.232;2024-02-23T01:08:33;9.20;99.90
20526;DHT22;10421;49.142;9.232;2024-02-23T01:11:01;9.20;99.90
20526;DHT22;10421;49.142;9.232;2024-02-23T01:13:28;9.30;99.90
20526;DHT22;10421;49.142;9.232;2024-02-23T01:15:54;9.30;99.90
20526;DHT22;10421;49.142;9.232;2024-02-23T01:18:22;9.40;99.90
20526;DHT22;10421;49.142;9.232;2024-02-23T01:20:49;9.40;99.90
20526;DHT22;10421;49.142;9.232;2024-02-23T01:23:16;9.40;99.90
20526;DHT22;10421;49.142;9.232;2024-02-23T01:25:43;9.20;99.90
20526;DHT22;10421;49.142;9.232;2024-02-23T01:28:09;9.20;99.90
20526;DHT22;10421;49.142;9.232;2024-02-23T01:30:36;9.20;99.90
20526;DHT22;10421;49.142;9.232;2024-02-23T01:33:03;8.90;99.90
20526;DHT22;10421;49.142;9.232;2024-02-23T01:35:31;8.70;99.90
20526;DHT22;10421;49.142;9.232;2024-02-23T01:37:58;8.70;99.90
20526;DHT22;10421;49.142;9.232;2024-02-23T01:40:25;8.70;99.90
20526;DHT22;10421;49.142;9.232;2024-02-23T01:43:00;8.80;99.90
20526;DHT22;10421;49.142;9.232;2024-02-23T01:45:28;8.70;99.90
20526;DHT22;10421;49.142;9.232;2024-02-23T01:47:55;8.70;99.90
20526;DHT22;10421;49.142;9.232;2024-02-23T01:50:22;8.80;99.90
20526;DHT22;10421;49.142;9.232;2024-02-23T01:52:50;8.80;99.90
20526;DHT22;10421;49.142;9.232;2024-02-23T01:55:20;8.80;99.90
20526;DHT22;10421;49.142;9.232;2024-02-23T01:57:47;8.70;99.90
20526;DHT22;10421;49.142;9.232;2024-02-23T02:00:16;8.70;99.90
20526;DHT22;10421;49.142;9.232;2024-02-23T02:02:43;8.70;99.90
20526;DHT22;10421;49.142;9.232;2024-02-23T02:05:10;8.60;99.90
20526;DHT22;10421;49.142;9.232;2024-02-23T02:07:37;8.70;99.90
20526;DHT22;10421;49.142;9.232;2024-02-23T02:10:08;8.70;99.90
20526;DHT22;10421;49.142;9.232;2024-02-23T02:12:35;8.70;99.90
20526;DHT22;10421;49.142;9.232;2024-02-23T02:15:02;8.60;99.90
20526;DHT22;10421;49.142;9.232;2024-02-23T02:17:29;8.60;99.90
20526;DHT22;10421;49.142;9.232;2024-02-23T02:19:58;8.60;99.90
20526;DHT22;10421;49.142;9.232;2024-02-23T02:22:25;8.60;99.90
20526;DHT22;10421;49.142;9.232;2024-02-23T02:24:52;8.60;99.90
20526;DHT22;10421;49.142;9.232;2024-02-23T02:27:20;8.60;99.90
20526;DHT22;10421;49.142;9.232;2024-02-23T02:29:50;8.60;99.90
20526;DHT22;10421;49.142;9.232;2024-02-23T02:32:16;8.50;99.90
20526;DHT22;10421;49.142;9.232;2024-02-23T02:34:43;8.50;99.90
20526;DHT22;10421;49.142;9.232;2024-02-23T02:37:10;8.40;99.90
20526;DHT22;10421;49.142;9.232;2024-02-23T02:39:37;8.40;99.90
20526;DHT22;10421;49.142;9.232;2024-02-23T02:42:04;8.50;99.90
20526;DHT22;10421;49.142;9.232;2024-02-23T02:44:32;8.60;99.90
20526;DHT22;10421;49.142;9.232;2024-02-23T02:46:58;8.60;99.90
20526;DHT22;10421;49.142;9.232;2024-02-23T02:49:25;8.60;99.90
20526;DHT22;10421;49.142;9.232;2024-02-23T02:51:52;8.50;99.90
20526;DHT22;10421;49.142;9.232;2024-02-23T02:54:19;8.50;99.90
20526;DHT22;10421;49.142;9.232;2024-02-23T02:56:47;8.50;99.90
20526;DHT22;10421;49.142;9.232;2024-02-23T02:59:16;8.50;99.90
20526;DHT22;10421;49.142;9.232;2024-02-23T03:01:45;8.60;99.60
20526;DHT22;10421;49.142;9.232;2024-02-23T03:04:12;8.70;99.50
20526;DHT22;10421;49.142;9.232;2024-02-23T03:06:39;8.70;99.30
20526;DHT22;10421;49.142;9.232;2024-02-23T03:09:05;8.80;99.30
20526;DHT22;10421;49.142;9.232;2024-02-23T03:11:36;8.70;99.30
20526;DHT22;10421;49.142;9.232;2024-02-23T03:14:02;8.50;99.50
20526;DHT22;10421;49.142;9.232;2024-02-23T03:16:29;8.40;99.70
20526;DHT22;10421;49.142;9.232;2024-02-23T03:18:58;8.50;99.80
20526;DHT22;10421;49.142;9.232;2024-02-23T03:21:25;8.60;99.60
20526;DHT22;10421;49.142;9.232;2024-02-23T03:23:51;8.70;99.60
20526;DHT22;10421;49.142;9.232;2024-02-23T03:26:18;8.60;99.60
20526;DHT22;10421;49.142;9.232;2024-02-23T03:28:45;8.30;99.90
20526;DHT22;10421;49.142;9.232;2024-02-23T03:31:14;8.20;99.90
20526;DHT22;10421;49.142;9.232;2024-02-23T03:33:40;8.20;99.90
20526;DHT22;10421;49.142;9.232;2024-02-23T03:36:09;8.40;99.90
20526;DHT22;10421;49.142;9.232;2024-02-23T03:38:35;8.50;99.90
20526;DHT22;10421;49.142;9.232;2024-02-23T03:41:02;8.60;99.90
20526;DHT22;10421;49.142;9.232;2024-02-23T03:43:29;8.60;99.70
20526;DHT22;10421;49.142;9.232;2024-02-23T03:45:56;8.70;99.50
20526;DHT22;10421;49.142;9.232;2024-02-23T03:48:22;8.70;99.40
20526;DHT22;10421;49.142;9.232;2024-02-23T03:50:49;8.70;99.50
20526;DHT22;10421;49.142;9.232;2024-02-23T03:53:17;8.60;99.40
20526;DHT22;10421;49.142;9.232;2024-02-23T03:55:44;8.70;99.60
20526;DHT22;10421;49.142;9.232;2024-02-23T03:58:11;8.80;99.50
20526;DHT22;10421;49.142;9.232;2024-02-23T04:00:37;8.70;99.40
20526;DHT22;10421;49.142;9.232;2024-02-23T04:03:04;8.80;99.50
20526;DHT22;10421;49.142;9.232;2024-02-23T04:05:31;8.80;99.20
20526;DHT22;10421;49.142;9.232;2024-02-23T04:07:58;8.70;99.00
20526;DHT22;10421;49.142;9.232;2024-02-23T04:10:26;8.80;98.90
20526;DHT22;10421;49.142;9.232;2024-02-23T04:12:53;8.80;99.00
20526;DHT22;10421;49.142;9.232;2024-02-23T04:15:20;8.70;98.80
20526;DHT22;10421;49.142;9.232;2024-02-23T04:17:46;8.70;98.80
20526;DHT22;10421;49.142;9.232;2024-02-23T04:20:13;8.70;98.70
20526;DHT22;10421;49.142;9.232;2024-02-23T04:22:40;8.70;98.40
20526;DHT22;10421;49.142;9.232;2024-02-23T04:25:07;8.60;97.90
20526;DHT22;10421;49.142;9.232;2024-02-23T04:27:35;8.60;97.60
20526;DHT22;10421;49.142;9.232;2024-02-23T04:30:03;8.50;97.70
20526;DHT22;10421;49.142;9.232;2024-02-23T04:32:30;8.60;97.40
20526;DHT22;10421;49.142;9.232;2024-02-23T04:34:56;8.60;97.40
20526;DHT22;10421;49.142;9.232;2024-02-23T04:37:23;8.60;97.30
20526;DHT22;10421;49.142;9.232;2024-02-23T04:39:50;8.70;97.40
20526;DHT22;10421;49.142;9.232;2024-02-23T04:42:17;8.70;97.20
20526;DHT22;10421;49.142;9.232;2024-02-23T04:44:45;8.70;97.00
20526;DHT22;10421;49.142;9.232;2024-02-23T04:47:14;8.50;97.20
20526;DHT22;10421;49.142;9.232;2024-02-23T04:49:41;8.50;97.20
20526;DHT22;10421;49.142;9.232;2024-02-23T04:52:08;8.50;97.30
20526;DHT22;10421;49.142;9.232;2024-02-23T04:54:35;8.60;97.20
20526;DHT22;10421;49.142;9.232;2024-02-23T04:57:02;8.50;97.20
20526;DHT22;10421;49.142;9.232;2024-02-23T04:59:29;8.50;97.20
20526;DHT22;10421;49.142;9.232;2024-02-23T05:01:59;8.70;97.10
20526;DHT22;10421;49.142;9.232;2024-02-23T05:04:25;8.80;96.90
20526;DHT22;10421;49.142;9.232;2024-02-23T05:06:53;9.00;96.70
20526;DHT22;10421;49.142;9.232;2024-02-23T05:09:20;9.10;96.60
20526;DHT22;10421;49.142;9.232;2024-02-23T05:11:52;9.20;96.30
20526;DHT22;10421;49.142;9.232;2024-02-23T05:14:19;9.10;96.40
20526;DHT22;10421;49.142;9.232;2024-02-23T05:16:46;9.10;96.30
20526;DHT22;10421;49.142;9.232;2024-02-23T05:19:14;9.20;96.30
20526;DHT22;10421;49.142;9.232;2024-02-23T05:21:40;9.40;96.20
20526;DHT22;10421;49.142;9.232;2024-02-23T05:24:07;9.40;95.80
20526;DHT22;10421;49.142;9.232;2024-02-23T05:26:34;9.40;95.80
20526;DHT22;10421;49.142;9.232;2024-02-23T05:29:01;9.30;95.80
20526;DHT22;10421;49.142;9.232;2024-02-23T05:31:45;9.20;95.80
20526;DHT22;10421;49.142;9.232;2024-02-23T05:34:14;9.10;95.70
20526;DHT22;10421;49.142;9.232;2024-02-23T05:36:41;9.10;95.90
20526;DHT22;10421;49.142;9.232;2024-02-23T05:39:08;9.20;95.70
20526;DHT22;10421;49.142;9.232;2024-02-23T05:41:36;9.20;95.80
20526;DHT22;10421;49.142;9.232;2024-02-23T05:44:03;9.00;95.80
20526;DHT22;10421;49.142;9.232;2024-02-23T05:46:31;8.70;95.50
20526;DHT22;10421;49.142;9.232;2024-02-23T05:48:59;8.70;95.90
20526;DHT22;10421;49.142;9.232;2024-02-23T05:51:28;8.80;95.80
20526;DHT22;10421;49.142;9.232;2024-02-23T05:53:55;8.90;95.70
20526;DHT22;10421;49.142;9.232;2024-02-23T05:56:22;8.60;96.00
20526;DHT22;10421;49.142;9.232;2024-02-23T05:58:50;8.60;96.10
20526;DHT22;10421;49.142;9.232;2024-02-23T06:01:16;8.70;96.10
20526;DHT22;10421;49.142;9.232;2024-02-23T06:03:43;8.70;96.10
20526;DHT22;10421;49.142;9.232;2024-02-23T06:06:11;8.70;95.60
20526;DHT22;10421;49.142;9.232;2024-02-23T06:08:39;8.70;95.80
20526;DHT22;10421;49.142;9.232;2024-02-23T06:11:05;8.70;95.60
20526;DHT22;10421;49.142;9.232;2024-02-23T06:13:32;8.80;95.70
20526;DHT22;10421;49.142;9.232;2024-02-23T06:15:59;8.70;95.80
20526;DHT22;10421;49.142;9.232;2024-02-23T06:18:26;8.50;96.10
20526;DHT22;10421;49.142;9.232;2024-02-23T06:20:52;8.60;96.20
20526;DHT22;10421;49.142;9.232;2024-02-23T06:23:19;8.70;96.10
20526;DHT22;10421;49.142;9.232;2024-02-23T06:25:48;8.70;96.20
20526;DHT22;10421;49.142;9.232;2024-02-23T06:28:15;8.80;96.10
20526;DHT22;10421;49.142;9.232;2024-02-23T06:30:42;8.90;96.20
20526;DHT22;10421;49.142;9.232;2024-02-23T06:33:09;8.90;96.10
20526;DHT22;10421;49.142;9.232;2024-02-23T06:35:35;8.90;96.20
20526;DHT22;10421;49.142;9.232;2024-02-23T06:38:02;8.90;96.00
20526;DHT22;10421;49.142;9.232;2024-02-23T06:40:31;9.00;95.90
20526;DHT22;10421;49.142;9.232;2024-02-23T06:42:59;8.90;96.10
20526;DHT22;10421;49.142;9.232;2024-02-23T06:45:26;9.00;95.90
20526;DHT22;10421;49.142;9.232;2024-02-23T06:47:52;8.90;95.90
20526;DHT22;10421;49.142;9.232;2024-02-23T06:50:19;8.80;95.80
20526;DHT22;10421;49.142;9.232;2024-02-23T06:52:47;8.70;95.90
20526;DHT22;10421;49.142;9.232;2024-02-23T06:55:15;8.70;95.90
20526;DHT22;10421;49.142;9.232;2024-02-23T06:57:43;8.80;95.60
20526;DHT22;10421;49.142;9.232;2024-02-23T07:00:12;8.70;94.90
20526;DHT22;10421;49.142;9.232;2024-02-23T07:02:38;8.70;95.50
20526;DHT22;10421;49.142;9.232;2024-02-23T07:05:06;8.70;95.20
20526;DHT22;10421;49.142;9.232;2024-02-23T07:07:34;8.60;95.40
20526;DHT22;10421;49.142;9.232;2024-02-23T07:10:01;8.60;95.30
20526;DHT22;10421;49.142;9.232;2024-02-23T07:12:28;8.40;95.50
20526;DHT22;10421;49.142;9.232;2024-02-23T07:14:55;8.40;95.50
20526;DHT22;10421;49.142;9.232;2024-02-23T07:17:23;8.40;95.80
20526;DHT22;10421;49.142;9.232;2024-02-23T07:19:50;8.50;95.70
20526;DHT22;10421;49.142;9.232;2024-02-23T07:22:18;8.50;95.70
20526;DHT22;10421;49.142;9.232;2024-02-23T07:24:45;8.70;95.90
20526;DHT22;10421;49.142;9.232;2024-02-23T07:27:12;8.50;95.70
20526;DHT22;10421;49.142;9.232;2024-02-23T07:29:39;8.40;95.90
20526;DHT22;10421;49.142;9.232;2024-02-23T07:32:06;8.40;96.30
20526;DHT22;10421;49.142;9.232;2024-02-23T07:34:34;8.40;95.90
20526;DHT22;10421;49.142;9.232;2024-02-23T07:37:01;8.30;95.70
20526;DHT22;10421;49.142;9.232;2024-02-23T07:39:28;8.30;95.70
20526;DHT22;10421;49.142;9.232;2024-02-23T07:41:54;8.00;96.10
20526;DHT22;10421;49.142;9.232;2024-02-23T07:44:21;8.00;96.20
20526;DHT22;10421;49.142;9.232;2024-02-23T07:46:48;7.90;96.50
20526;DHT22;10421;49.142;9.232;2024-02-23T07:49:17;8.10;96.30
20526;DHT22;10421;49.142;9.232;2024-02-23T07:51:45;8.10;96.00
20526;DHT22;10421;49.142;9.232;2024-02-23T07:54:12;8.20;95.90
20526;DHT22;10421;49.142;9.232;2024-02-23T07:56:39;8.00;96.00
20526;DHT22;10421;49.142;9.232;2024-02-23T07:59:06;8.10;96.00
20526;DHT22;10421;49.142;9.232;2024-02-23T08:01:32;8.30;96.00
20526;DHT22;10421;49.142;9.232;2024-02-23T08:03:59;8.20;95.70
20526;DHT22;10421;49.142;9.232;2024-02-23T08:06:26;8.20;96.00
20526;DHT22;10421;49.142;9.232;2024-02-23T08:08:54;8.30;96.10
20526;DHT22;10421;49.142;9.232;2024-02-23T08:11:21;8.40;95.70
20526;DHT22;10421;49.142;9.232;2024-02-23T08:13:48;8.50;95.60
20526;DHT22;10421;49.142;9.232;2024-02-23T08:16:16;8.40;95.70
20526;DHT22;10421;49.142;9.232;2024-02-23T08:18:42;8.40;96.20
20526;DHT22;10421;49.142;9.232;2024-02-23T08:21:10;8.40;95.90
20526;DHT22;10421;49.142;9.232;2024-02-23T08:23:36;8.50;96.00
20526;DHT22;10421;49.142;9.232;2024-02-23T08:26:06;8.50;95.60
20526;DHT22;10421;49.142;9.232;2024-02-23T08:28:32;8.20;95.70
20526;DHT22;10421;49.142;9.232;2024-02-23T08:30:59;8.20;95.80
20526;DHT22;10421;49.142;9.232;2024-02-23T08:33:26;8.40;95.90
20526;DHT22;10421;49.142;9.232;2024-02-23T08:35:53;8.40;95.60
20526;DHT22;10421;49.142;9.232;2024-02-23T08:38:20;8.40;96.00
20526;DHT22;10421;49.142;9.232;2024-02-23T08:40:46;8.50;95.90
20526;DHT22;10421;49.142;9.232;2024-02-23T08:43:14;8.70;95.70
20526;DHT22;10421;49.142;9.232;2024-02-23T08:45:41;8.90;95.70
20526;DHT22;10421;49.142;9.232;2024-02-23T08:48:08;9.10;95.90
20526;DHT22;10421;49.142;9.232;2024-02-23T08:50:35;9.10;96.10
20526;DHT22;10421;49.142;9.232;2024-02-23T08:53:04;9.10;96.20
20526;DHT22;10421;49.142;9.232;2024-02-23T08:55:30;9.30;96.10
20526;DHT22;10421;49.142;9.232;2024-02-23T08:57:58;9.20;96.40
20526;DHT22;10421;49.142;9.232;2024-02-23T09:00:26;9.10;96.50
20526;DHT22;10421;49.142;9.232;2024-02-23T09:02:54;8.70;97.10
20526;DHT22;10421;49.142;9.232;2024-02-23T09:05:20;8.50;97.70
20526;DHT22;10421;49.142;9.232;2024-02-23T09:07:47;8.40;98.00
20526;DHT22;10421;49.142;9.232;2024-02-23T09:10:14;8.30;98.40
20526;DHT22;10421;49.142;9.232;2024-02-23T09:12:41;8.30;98.60
20526;DHT22;10421;49.142;9.232;2024-02-23T09:15:08;8.30;98.60
20526;DHT22;10421;49.142;9.232;2024-02-23T09:17:36;8.20;98.80
20526;DHT22;10421;49.142;9.232;2024-02-23T09:20:04;8.20;98.90
20526;DHT22;10421;49.142;9.232;2024-02-23T09:22:31;7.90;99.30
20526;DHT22;10421;49.142;9.232;2024-02-23T09:24:57;7.90;99.60
20526;DHT22;10421;49.142;9.232;2024-02-23T09:27:24;7.80;99.80
20526;DHT22;10421;49.142;9.232;2024-02-23T09:29:52;7.80;99.70
20526;DHT22;10421;49.142;9.232;2024-02-23T09:32:18;7.80;99.70
20526;DHT22;10421;49.142;9.232;2024-02-23T09:34:46;8.00;99.50
20526;DHT22;10421;49.142;9.232;2024-02-23T09:37:13;8.00;99.50
20526;DHT22;10421;49.142;9.232;2024-02-23T09:39:40;8.10;99.50
20526;DHT22;10421;49.142;9.232;2024-02-23T09:42:10;8.20;99.40
20526;DHT22;10421;49.142;9.232;2024-02-23T09:44:37;8.10;99.30
20526;DHT22;10421;49.142;9.232;2024-02-23T09:47:04;8.00;99.70
20526;DHT22;10421;49.142;9.232;2024-02-23T09:49:38;8.10;99.60
20526;DHT22;10421;49.142;9.232;2024-02-23T09:52:07;8.30;99.30
20526;DHT22;10421;49.142;9.232;2024-02-23T09:54:34;8.40;99.30
20526;DHT22;10421;49.142;9.232;2024-02-23T09:57:05;8.60;99.10
20526;DHT22;10421;49.142;9.232;2024-02-23T09:59:33;8.70;98.70
20526;DHT22;10421;49.142;9.232;2024-02-23T10:02:00;8.90;98.70
20526;DHT22;10421;49.142;9.232;2024-02-23T10:04:29;9.00;98.70
20526;DHT22;10421;49.142;9.232;2024-02-23T10:06:56;8.80;98.70
20526;DHT22;10421;49.142;9.232;2024-02-23T10:09:24;8.90;97.80
20526;DHT22;10421;49.142;9.232;2024-02-23T10:11:54;8.90;97.00
20526;DHT22;10421;49.142;9.232;2024-02-23T10:14:21;8.90;97.80
20526;DHT22;10421;49.142;9.232;2024-02-23T10:16:48;8.80;97.10
20526;DHT22;10421;49.142;9.232;2024-02-23T10:19:19;8.60;97.80
20526;DHT22;10421;49.142;9.232;2024-02-23T10:21:46;8.60;98.20
20526;DHT22;10421;49.142;9.232;2024-02-23T10:24:13;8.70;98.10
20526;DHT22;10421;49.142;9.232;2024-02-23T10:26:43;8.70;98.20
20526;DHT22;10421;49.142;9.232;2024-02-23T10:29:10;8.70;98.30
20526;DHT22;10421;49.142;9.232;2024-02-23T10:31:37;8.70;98.00
20526;DHT22;10421;49.142;9.232;2024-02-23T10:34:07;8.50;98.20
20526;DHT22;10421;49.142;9.232;2024-02-23T10:36:38;8.40;98.40
20526;DHT22;10421;49.142;9.232;2024-02-23T10:39:08;8.30;98.60
20526;DHT22;10421;49.142;9.232;2024-02-23T10:41:35;8.30;97.90
20526;DHT22;10421;49.142;9.232;2024-02-23T10:44:05;8.20;97.60
20526;DHT22;10421;49.142;9.232;2024-02-23T10:46:32;8.10;98.30
20526;DHT22;10421;49.142;9.232;2024-02-23T10:48:59;8.10;98.00
20526;DHT22;10421;49.142;9.232;2024-02-23T10:51:27;8.20;98.20
20526;DHT22;10421;49.142;9.232;2024-02-23T10:53:55;8.30;98.10
20526;DHT22;10421;49.142;9.232;2024-02-23T10:56:23;8.20;97.30
20526;DHT22;10421;49.142;9.232;2024-02-23T10:58:51;8.20;97.40
20526;DHT22;10421;49.142;9.232;2024-02-23T11:01:20;8.20;97.50
20526;DHT22;10421;49.142;9.232;2024-02-23T11:03:48;8.20;97.80
20526;DHT22;10421;49.142;9.232;2024-02-23T11:06:16;8.40;97.50
20526;DHT22;10421;49.142;9.232;2024-02-23T11:08:46;8.60;97.20
20526;DHT22;10421;49.142;9.232;2024-02-23T11:11:15;8.60;97.00
20526;DHT22;10421;49.142;9.232;2024-02-23T11:13:44;8.50;96.90
20526;DHT22;10421;49.142;9.232;2024-02-23T11:16:20;8.50;96.80
20526;DHT22;10421;49.142;9.232;2024-02-23T11:18:48;8.50;96.70
20526;DHT22;10421;49.142;9.232;2024-02-23T11:21:15;8.50;97.00
20526;DHT22;10421;49.142;9.232;2024-02-23T11:23:42;8.50;97.00
20526;DHT22;10421;49.142;9.232;2024-02-23T11:26:10;8.50;96.70
20526;DHT22;10421;49.142;9.232;2024-02-23T11:28:42;8.50;96.60
20526;DHT22;10421;49.142;9.232;2024-02-23T11:31:13;8.60;96.40
20526;DHT22;10421;49.142;9.232;2024-02-23T11:33:48;8.50;96.70
20526;DHT22;10421;49.142;9.232;2024-02-23T11:36:22;8.60;96.70
20526;DHT22;10421;49.142;9.232;2024-02-23T11:38:52;8.60;96.80
20526;DHT22;10421;49.142;9.232;2024-02-23T11:41:21;8.70;97.00
20526;DHT22;10421;49.142;9.232;2024-02-23T11:43:48;8.80;96.80
20526;DHT22;10421;49.142;9.232;2024-02-23T11:46:15;8.90;96.60
20526;DHT22;10421;49.142;9.232;2024-02-23T11:48:42;9.00;96.80
20526;DHT22;10421;49.142;9.232;2024-02-23T11:51:10;9.00;96.50
20526;DHT22;10421;49.142;9.232;2024-02-23T11:53:37;9.00;96.70
20526;DHT22;10421;49.142;9.232;2024-02-23T11:56:05;9.00;96.50
20526;DHT22;10421;49.142;9.232;2024-02-23T11:58:32;8.90;97.00
20526;DHT22;10421;49.142;9.232;2024-02-23T12:01:00;9.10;96.80
20526;DHT22;10421;49.142;9.232;2024-02-23T12:03:28;9.10;96.60
20526;DHT22;10421;49.142;9.232;2024-02-23T12:05:56;9.30;96.60
20526;DHT22;10421;49.142;9.232;2024-02-23T12:08:25;9.40;96.50
20526;DHT22;10421;49.142;9.232;2024-02-23T12:10:53;9.50;96.50
20526;DHT22;10421;49.142;9.232;2024-02-23T12:13:20;9.50;96.50
20526;DHT22;10421;49.142;9.232;2024-02-23T12:15:47;9.30;96.10
20526;DHT22;10421;49.142;9.232;2024-02-23T12:18:14;9.20;96.30
20526;DHT22;10421;49.142;9.232;2024-02-23T12:20:41;9.20;96.60
20526;DHT22;10421;49.142;9.232;2024-02-23T12:23:07;9.40;96.50
20526;DHT22;10421;49.142;9.232;2024-02-23T12:25:37;9.40;96.40
20526;DHT22;10421;49.142;9.232;2024-02-23T12:28:04;9.30;96.00
20526;DHT22;10421;49.142;9.232;2024-02-23T12:30:31;9.20;96.20
20526;DHT22;10421;49.142;9.232;2024-02-23T12:33:05;9.30;96.50
20526;DHT22;10421;49.142;9.232;2024-02-23T12:35:33;9.40;96.50
20526;DHT22;10421;49.142;9.232;2024-02-23T12:38:00;9.40;96.10
20526;DHT22;10421;49.142;9.232;2024-02-23T12:40:27;9.40;96.10
20526;DHT22;10421;49.142;9.232;2024-02-23T12:42:56;9.20;96.00
20526;DHT22;10421;49.142;9.232;2024-02-23T12:45:22;9.20;96.20
20526;DHT22;10421;49.142;9.232;2024-02-23T12:47:49;9.30;96.30
20526;DHT22;10421;49.142;9.232;2024-02-23T12:50:16;9.20;96.10
20526;DHT22;10421;49.142;9.232;2024-02-23T12:52:42;9.10;96.10
20526;DHT22;10421;49.142;9.232;2024-02-23T12:55:10;9.00;95.90
20526;DHT22;10421;49.142;9.232;2024-02-23T12:57:37;9.00;96.10
20526;DHT22;10421;49.142;9.232;2024-02-23T13:00:06;9.00;96.00
20526;DHT22;10421;49.142;9.232;2024-02-23T13:02:33;9.10;96.20
20526;DHT22;10421;49.142;9.232;2024-02-23T13:05:00;9.00;96.10
20526;DHT22;10421;49.142;9.232;2024-02-23T13:07:27;9.10;96.10
20526;DHT22;10421;49.142;9.232;2024-02-23T13:09:54;9.10;95.90
20526;DHT22;10421;49.142;9.232;2024-02-23T13:12:20;9.20;96.00
20526;DHT22;10421;49.142;9.232;2024-02-23T13:14:47;9.10;95.60
20526;DHT22;10421;49.142;9.232;2024-02-23T13:17:15;9.10;95.40
20526;DHT22;10421;49.142;9.232;2024-02-23T13:19:42;9.10;95.60
20526;DHT22;10421;49.142;9.232;2024-02-23T13:22:09;9.10;95.90
20526;DHT22;10421;49.142;9.232;2024-02-23T13:24:36;9.10;95.30
20526;DHT22;10421;49.142;9.232;2024-02-23T13:27:05;9.10;95.00
20526;DHT22;10421;49.142;9.232;2024-02-23T13:29:32;9.00;95.00
20526;DHT22;10421;49.142;9.232;2024-02-23T13:31:59;9.00;95.00
20526;DHT22;10421;49.142;9.232;2024-02-23T13:34:27;9.00;95.10
20526;DHT22;10421;49.142;9.232;2024-02-23T13:36:54;9.10;95.30
20526;DHT22;10421;49.142;9.232;2024-02-23T13:39:20;9.10;95.30
20526;DHT22;10421;49.142;9.232;2024-02-23T13:41:47;9.20;95.40
20526;DHT22;10421;49.142;9.232;2024-02-23T13:44:14;9.40;95.40
20526;DHT22;10421;49.142;9.232;2024-02-23T13:46:40;9.50;94.90
20526;DHT22;10421;49.142;9.232;2024-02-23T13:49:07;9.50;94.90
20526;DHT22;10421;49.142;9.232;2024-02-23T13:51:36;9.50;95.00
20526;DHT22;10421;49.142;9.232;2024-02-23T13:54:03;9.60;95.10
20526;DHT22;10421;49.142;9.232;2024-02-23T13:56:30;9.60;95.20
20526;DHT22;10421;49.142;9.232;2024-02-23T13:58:57;9.60;95.20
20526;DHT22;10421;49.142;9.232;2024-02-23T14:01:24;9.70;95.30
20526;DHT22;10421;49.142;9.232;2024-02-23T14:03:51;9.70;95.30
20526;DHT22;10421;49.142;9.232;2024-02-23T14:06:17;9.80;95.10
20526;DHT22;10421;49.142;9.232;2024-02-23T14:08:46;9.80;95.10
20526;DHT22;10421;49.142;9.232;2024-02-23T14:11:13;9.80;94.60
20526;DHT22;10421;49.142;9.232;2024-02-23T14:13:40;9.90;95.00
20526;DHT22;10421;49.142;9.232;2024-02-23T14:16:07;9.80;94.60
20526;DHT22;10421;49.142;9.232;2024-02-23T14:18:34;9.80;95.00
20526;DHT22;10421;49.142;9.232;2024-02-23T14:21:04;9.80;94.70
20526;DHT22;10421;49.142;9.232;2024-02-23T14:23:31;9.70;95.00
20526;DHT22;10421;49.142;9.232;2024-02-23T14:25:59;9.70;95.00
20526;DHT22;10421;49.142;9.232;2024-02-23T14:28:25;9.90;95.10
20526;DHT22;10421;49.142;9.232;2024-02-23T14:30:52;9.90;94.40
20526;DHT22;10421;49.142;9.232;2024-02-23T14:33:19;9.90;94.50
20526;DHT22;10421;49.142;9.232;2024-02-23T14:35:46;9.80;94.70
20526;DHT22;10421;49.142;9.232;2024-02-23T14:38:14;9.70;95.00
20526;DHT22;10421;49.142;9.232;2024-02-23T14:40:44;9.70;94.80
20526;DHT22;10421;49.142;9.232;2024-02-23T14:43:13;9.60;94.80
20526;DHT22;10421;49.142;9.232;2024-02-23T14:45:40;9.60;95.10
20526;DHT22;10421;49.142;9.232;2024-02-23T14:48:07;9.60;95.30
20526;DHT22;10421;49.142;9.232;2024-02-23T14:50:34;9.60;94.90
20526;DHT22;10421;49.142;9.232;2024-02-23T14:53:01;9.70;95.50
20526;DHT22;10421;49.142;9.232;2024-02-23T14:55:27;9.60;95.30
20526;DHT22;10421;49.142;9.232;2024-02-23T14:57:54;9.60;95.40
20526;DHT22;10421;49.142;9.232;2024-02-23T15:00:23;9.50;95.20
20526;DHT22;10421;49.142;9.232;2024-02-23T15:02:49;9.50;95.60
20526;DHT22;10421;49.142;9.232;2024-02-23T15:05:16;9.50;95.80
20526;DHT22;10421;49.142;9.232;2024-02-23T15:07:43;9.40;95.40
20526;DHT22;10421;49.142;9.232;2024-02-23T15:10:10;9.40;95.70
20526;DHT22;10421;49.142;9.232;2024-02-23T15:12:37;9.40;95.80
20526;DHT22;10421;49.142;9.232;2024-02-23T15:15:04;9.50;95.70
20526;DHT22;10421;49.142;9.232;2024-02-23T15:17:33;9.50;95.80
20526;DHT22;10421;49.142;9.232;2024-02-23T15:20:00;9.50;95.90
20526;DHT22;10421;49.142;9.232;2024-02-23T15:22:27;9.50;95.90
20526;DHT22;10421;49.142;9.232;2024-02-23T15:24:54;9.60;96.00
20526;DHT22;10421;49.142;9.232;2024-02-23T15:27:23;9.70;96.10
20526;DHT22;10421;49.142;9.232;2024-02-23T15:29:50;9.90;95.40
20526;DHT22;10421;49.142;9.232;2024-02-23T15:32:17;9.80;95.50
20526;DHT22;10421;49.142;9.232;2024-02-23T15:34:45;9.70;95.70
20526;DHT22;10421;49.142;9.232;2024-02-23T15:37:12;9.70;95.80
20526;DHT22;10421;49.142;9.232;2024-02-23T15:39:39;9.80;95.90
20526;DHT22;10421;49.142;9.232;2024-02-23T15:42:06;9.90;95.80
20526;DHT22;10421;49.142;9.232;2024-02-23T15:44:33;10.00;95.20
20526;DHT22;10421;49.142;9.232;2024-02-23T15:47:00;10.10;95.00